Time;durP1;ratioP1;P1;durP2;ratioP2;P2;SDS_P1;SDS_P2;PMS_P1;PMS_P2;Temp;Humidity;BMP_temperature;BMP_pressure;BME280_temperature;BME280_humidity;BME280_pressure;Samples;Min_cycle;Max_cycle;Signal;HPM_P1;HPM_P2
2021/08/27 00:01:26;;;;;;;4.10;1.20;;;;;;;;;;5047281;28;20176;-68
2021/08/27 00:03:51;;;;;;;6.25;1.55;;;;;;;;;;5049998;28;20205;-69
2021/08/27 00:06:16;;;;;;;5.57;2.33;;;;;;;;;;5051253;28;20280;-68
2021/08/27 00:08:42;;;;;;;4.00;1.83;;;;;;;;;;5052309;28;20196;-68
2021/08/27 00:11:07;;;;;;;6.85;1.55;;;;;;;;;;5053501;28;20177;-68
2021/08/27 00:13:32;;;;;;;5.25;1.80;;;;;;;;;;5053409;28;20625;-69
2021/08/27 00:15:57;;;;;;;4.60;1.35;;;;;;;;;;5053241;28;20276;-69
2021/08/27 00:18:23;;;;;;;6.38;1.63;;;;;;;;;;5051550;28;20182;-69
2021/08/27 00:20:48;;;;;;;4.32;1.95;;;;;;;;;;5053321;28;20169;-69
2021/08/27 00:23:13;;;;;;;2.33;1.52;;;;;;;;;;5051151;28;20231;-69
2021/08/27 00:25:38;;;;;;;9.45;2.30;;;;;;;;;;5047883;28;20201;-69
2021/08/27 00:28:05;;;;;;;7.25;1.80;;;;;;;;;;5053679;28;20256;-69
2021/08/27 00:30:31;;;;;;;3.42;2.03;;;;;;;;;;5049030;28;20270;-68
2021/08/27 00:32:56;;;;;;;5.68;1.40;;;;;;;;;;5051827;28;20189;-69
2021/08/27 00:35:21;;;;;;;6.72;1.85;;;;;;;;;;5051237;28;20212;-69
2021/08/27 00:37:46;;;;;;;6.45;1.67;;;;;;;;;;5052247;28;20178;-69
2021/08/27 00:40:11;;;;;;;3.92;1.60;;;;;;;;;;5051161;28;20185;-69
2021/08/27 00:42:37;;;;;;;5.30;1.55;;;;;;;;;;5051842;28;20178;-68
2021/08/27 00:45:02;;;;;;;4.10;1.40;;;;;;;;;;5049933;28;20215;-68
2021/08/27 00:47:27;;;;;;;6.72;1.55;;;;;;;;;;5048865;28;20220;-69
2021/08/27 00:49:52;;;;;;;6.20;1.60;;;;;;;;;;5051634;28;20189;-69
2021/08/27 00:52:18;;;;;;;5.15;1.63;;;;;;;;;;5049927;28;20624;-69
2021/08/27 00:54:45;;;;;;;5.45;1.50;;;;;;;;;;5050205;28;20201;-68
2021/08/27 00:57:10;;;;;;;4.25;1.60;;;;;;;;;;5050578;28;20186;-68
2021/08/27 00:59:35;;;;;;;4.05;1.33;;;;;;;;;;5051880;28;20169;-69
2021/08/27 01:02:00;;;;;;;6.82;1.52;;;;;;;;;;5053568;28;20639;-69
2021/08/27 01:04:26;;;;;;;7.03;1.30;;;;;;;;;;5054606;28;20574;-70
2021/08/27 01:06:56;;;;;;;3.63;1.40;;;;;;;;;;5021006;28;20190;-70
2021/08/27 01:09:28;;;;;;;5.32;1.63;;;;;;;;;;5048306;28;20192;-70
2021/08/27 01:12:13;;;;;;;6.38;1.70;;;;;;;;;;5049765;28;20586;-69
2021/08/27 01:14:40;;;;;;;6.72;2.72;;;;;;;;;;5047867;28;20213;-68
2021/08/27 01:17:18;;;;;;;4.47;1.33;;;;;;;;;;5049485;28;20188;-69
2021/08/27 01:20:02;;;;;;;5.78;1.60;;;;;;;;;;5043417;28;20181;-68
2021/08/27 01:22:46;;;;;;;6.63;1.50;;;;;;;;;;5048911;28;20170;-67
2021/08/27 01:25:12;;;;;;;6.47;1.65;;;;;;;;;;5025522;28;20237;-69
2021/08/27 01:27:38;;;;;;;5.13;1.88;;;;;;;;;;5054655;28;20196;-69
2021/08/27 01:30:14;;;;;;;4.65;1.90;;;;;;;;;;5052740;28;20188;-69
2021/08/27 01:32:55;;;;;;;4.45;1.48;;;;;;;;;;5047266;28;20182;-70
2021/08/27 01:35:22;;;;;;;6.93;1.92;;;;;;;;;;5050075;28;20225;-69
2021/08/27 01:37:48;;;;;;;4.80;1.80;;;;;;;;;;5054146;28;20186;-70
2021/08/27 01:40:14;;;;;;;8.60;1.45;;;;;;;;;;5050243;28;20178;-69
2021/08/27 01:42:39;;;;;;;5.97;1.65;;;;;;;;;;5051866;28;20252;-69
2021/08/27 01:45:05;;;;;;;5.80;1.63;;;;;;;;;;5051096;28;20205;-70
2021/08/27 01:47:32;;;;;;;3.95;1.55;;;;;;;;;;5051438;28;20264;-70
2021/08/27 01:49:57;;;;;;;5.10;2.17;;;;;;;;;;5051596;28;20199;-67
2021/08/27 01:52:23;;;;;;;4.93;1.70;;;;;;;;;;5049813;28;20643;-70
2021/08/27 01:54:48;;;;;;;5.75;2.55;;;;;;;;;;5033535;28;20207;-69
2021/08/27 01:57:14;;;;;;;6.80;1.70;;;;;;;;;;5052398;28;20177;-68
2021/08/27 01:59:41;;;;;;;6.22;1.90;;;;;;;;;;5050737;28;20184;-69
2021/08/27 02:02:07;;;;;;;6.75;2.47;;;;;;;;;;5050406;28;20693;-71
2021/08/27 02:04:34;;;;;;;3.95;1.88;;;;;;;;;;5052259;28;20229;-70
2021/08/27 02:07:00;;;;;;;6.22;2.30;;;;;;;;;;5051612;28;20185;-70
2021/08/27 02:09:25;;;;;;;2.80;1.77;;;;;;;;;;5057571;28;20177;-67
2021/08/27 02:11:51;;;;;;;3.53;2.03;;;;;;;;;;5051524;28;20182;-67
2021/08/27 02:14:17;;;;;;;9.15;1.98;;;;;;;;;;5058726;28;20199;-69
2021/08/27 02:16:42;;;;;;;5.90;2.03;;;;;;;;;;5054727;28;20173;-70
2021/08/27 02:19:08;;;;;;;5.73;2.13;;;;;;;;;;5051909;28;20712;-68
2021/08/27 02:21:36;;;;;;;5.70;1.60;;;;;;;;;;5036126;28;20188;-70
2021/08/27 02:24:04;;;;;;;4.82;1.80;;;;;;;;;;5043800;28;20202;-69
2021/08/27 02:26:31;;;;;;;5.68;2.55;;;;;;;;;;5039902;28;20280;-69
2021/08/27 02:28:57;;;;;;;4.38;1.77;;;;;;;;;;5035924;28;20252;-69
2021/08/27 02:31:23;;;;;;;7.80;2.28;;;;;;;;;;5046932;28;20197;-69
2021/08/27 02:33:49;;;;;;;8.50;1.87;;;;;;;;;;5064199;22;20209;-69
2021/08/27 02:36:16;;;;;;;5.38;1.75;;;;;;;;;;5069153;28;20227;-69
2021/08/27 02:38:43;;;;;;;5.28;1.80;;;;;;;;;;5068264;28;20181;-70
2021/08/27 02:41:08;;;;;;;4.07;1.77;;;;;;;;;;5063907;28;20185;-69
2021/08/27 02:43:33;;;;;;;9.05;1.92;;;;;;;;;;5067606;28;20231;-70
2021/08/27 02:45:58;;;;;;;5.82;2.03;;;;;;;;;;5070970;28;20200;-69
2021/08/27 02:48:24;;;;;;;8.02;1.80;;;;;;;;;;5068679;28;20263;-70
2021/08/27 02:50:54;;;;;;;3.28;1.33;;;;;;;;;;5070309;28;20177;-70
2021/08/27 02:53:21;;;;;;;6.03;1.85;;;;;;;;;;5068083;28;20173;-69
2021/08/27 02:55:47;;;;;;;6.85;2.50;;;;;;;;;;5074975;28;20204;-70
2021/08/27 02:58:22;;;;;;;6.80;1.83;;;;;;;;;;5075805;28;20265;-69
2021/08/27 03:00:52;;;;;;;7.70;1.85;;;;;;;;;;5072530;28;20176;-70
2021/08/27 03:03:19;;;;;;;30.20;4.68;;;;;;;;;;5066700;28;20250;-70
2021/08/27 03:05:44;;;;;;;4.80;1.50;;;;;;;;;;5065121;28;20215;-72
2021/08/27 03:08:13;;;;;;;6.43;2.13;;;;;;;;;;5064898;28;20176;-70
2021/08/27 03:11:07;;;;;;;8.88;1.92;;;;;;;;;;5069631;28;20179;-70
2021/08/27 03:13:38;;;;;;;7.90;1.63;;;;;;;;;;5049138;28;20192;-69
2021/08/27 03:16:06;;;;;;;9.57;2.13;;;;;;;;;;5069873;28;20205;-70
2021/08/27 03:18:43;;;;;;;10.50;2.58;;;;;;;;;;5066183;28;20546;-70
2021/08/27 03:21:15;;;;;;;7.47;1.48;;;;;;;;;;5072591;28;20173;-69
2021/08/27 03:23:40;;;;;;;5.22;1.77;;;;;;;;;;5048333;28;20169;-70
2021/08/27 03:26:07;;;;;;;8.63;2.13;;;;;;;;;;5067109;28;20184;-70
2021/08/27 03:28:37;;;;;;;4.13;1.67;;;;;;;;;;5069055;28;20925;-69
2021/08/27 03:31:02;;;;;;;7.78;2.22;;;;;;;;;;5056916;28;20524;-69
2021/08/27 03:33:28;;;;;;;4.63;1.70;;;;;;;;;;5069186;28;20173;-69
2021/08/27 03:35:54;;;;;;;6.80;1.95;;;;;;;;;;5062572;28;20208;-70
2021/08/27 03:38:23;;;;;;;6.68;1.90;;;;;;;;;;5063731;28;20681;-70
2021/08/27 03:40:49;;;;;;;6.15;1.50;;;;;;;;;;5066099;28;20188;-69
2021/08/27 03:43:14;;;;;;;7.05;1.67;;;;;;;;;;5067865;28;20579;-69
2021/08/27 03:45:40;;;;;;;3.78;1.70;;;;;;;;;;5066905;28;20197;-69
2021/08/27 03:48:05;;;;;;;6.28;1.83;;;;;;;;;;5062386;28;20181;-69
2021/08/27 03:50:30;;;;;;;5.10;1.52;;;;;;;;;;5067704;28;20173;-70
2021/08/27 03:52:56;;;;;;;7.10;1.85;;;;;;;;;;5070231;28;20238;-70
2021/08/27 03:55:22;;;;;;;5.68;1.55;;;;;;;;;;5049900;28;20291;-70
2021/08/27 03:57:49;;;;;;;5.50;1.63;;;;;;;;;;5071261;28;20177;-70
2021/08/27 04:00:15;;;;;;;4.38;1.50;;;;;;;;;;5071308;28;20169;-70
2021/08/27 04:02:40;;;;;;;7.40;1.33;;;;;;;;;;5068037;28;20540;-70
2021/08/27 04:05:11;;;;;;;9.82;1.77;;;;;;;;;;5071077;28;20721;-70
2021/08/27 04:07:36;;;;;;;6.00;1.52;;;;;;;;;;5071896;28;20173;-69
2021/08/27 04:10:03;;;;;;;8.25;1.90;;;;;;;;;;5073309;28;20188;-70
2021/08/27 04:12:28;;;;;;;3.03;1.50;;;;;;;;;;5066077;28;20255;-70
2021/08/27 04:14:53;;;;;;;4.57;1.20;;;;;;;;;;5073151;28;20365;-69
2021/08/27 04:17:18;;;;;;;2.67;1.20;;;;;;;;;;5071699;28;20169;-69
2021/08/27 04:19:43;;;;;;;4.03;1.20;;;;;;;;;;5069347;28;20666;-68
2021/08/27 04:22:08;;;;;;;2.70;1.35;;;;;;;;;;5073420;28;20255;-69
2021/08/27 04:24:33;;;;;;;4.10;1.27;;;;;;;;;;5070558;28;20693;-70
2021/08/27 04:26:59;;;;;;;4.65;0.95;;;;;;;;;;5055180;28;20455;-71
2021/08/27 04:29:24;;;;;;;3.78;1.02;;;;;;;;;;5072261;28;20181;-71
2021/08/27 04:31:49;;;;;;;3.13;1.05;;;;;;;;;;5050804;28;20226;-71
2021/08/27 04:34:14;;;;;;;6.22;1.70;;;;;;;;;;5074741;28;20213;-71
2021/08/27 04:36:40;;;;;;;4.97;1.13;;;;;;;;;;5075584;28;20169;-71
2021/08/27 04:39:05;;;;;;;5.85;1.40;;;;;;;;;;5068677;28;20180;-71
2021/08/27 04:41:30;;;;;;;3.30;1.30;;;;;;;;;;5074139;28;20199;-71
2021/08/27 04:43:55;;;;;;;4.22;1.20;;;;;;;;;;5074177;28;20561;-71
2021/08/27 04:46:20;;;;;;;2.65;1.00;;;;;;;;;;5049395;28;20209;-70
2021/08/27 04:48:45;;;;;;;2.78;1.60;;;;;;;;;;5054354;28;20584;-71
2021/08/27 04:51:11;;;;;;;2.70;1.00;;;;;;;;;;5055322;28;20250;-70
2021/08/27 04:53:36;;;;;;;4.15;0.98;;;;;;;;;;5069900;28;20254;-71
2021/08/27 04:56:01;;;;;;;3.40;1.02;;;;;;;;;;5069997;28;20208;-71
2021/08/27 04:58:26;;;;;;;3.95;1.40;;;;;;;;;;5070724;28;20654;-70
2021/08/27 05:00:52;;;;;;;3.03;1.38;;;;;;;;;;5067084;28;20173;-70
2021/08/27 05:03:17;;;;;;;2.63;1.02;;;;;;;;;;5066752;28;20627;-70
2021/08/27 05:05:42;;;;;;;4.53;0.88;;;;;;;;;;5064235;28;20201;-69
2021/08/27 05:08:08;;;;;;;4.35;1.20;;;;;;;;;;5068359;28;20191;-70
2021/08/27 05:10:33;;;;;;;3.85;1.10;;;;;;;;;;5068000;28;20184;-70
2021/08/27 05:12:58;;;;;;;4.22;1.00;;;;;;;;;;5070114;28;20268;-70
2021/08/27 05:15:24;;;;;;;6.50;1.70;;;;;;;;;;5071876;28;20196;-70
2021/08/27 05:17:49;;;;;;;4.22;1.30;;;;;;;;;;5053798;28;20173;-70
2021/08/27 05:20:14;;;;;;;7.00;1.63;;;;;;;;;;5049322;28;20185;-70
2021/08/27 05:22:39;;;;;;;8.73;2.42;;;;;;;;;;5051104;28;20291;-70
2021/08/27 05:25:04;;;;;;;5.50;1.90;;;;;;;;;;5070021;28;20205;-69
2021/08/27 05:27:30;;;;;;;5.30;1.42;;;;;;;;;;5049010;28;20204;-70
2021/08/27 05:29:55;;;;;;;6.20;1.27;;;;;;;;;;5070080;28;20184;-70
2021/08/27 05:32:20;;;;;;;3.38;1.40;;;;;;;;;;5065320;28;20177;-70
2021/08/27 05:34:45;;;;;;;8.73;2.22;;;;;;;;;;5065316;28;20221;-70
2021/08/27 05:37:11;;;;;;;5.03;1.90;;;;;;;;;;5069222;28;20213;-69
2021/08/27 05:39:36;;;;;;;2.67;1.55;;;;;;;;;;5070455;28;20578;-70
2021/08/27 05:42:02;;;;;;;4.75;2.00;;;;;;;;;;5071825;28;20200;-69
2021/08/27 05:44:27;;;;;;;6.97;1.95;;;;;;;;;;5048633;28;20189;-70
2021/08/27 05:46:53;;;;;;;4.97;1.67;;;;;;;;;;5071405;28;20614;-70
2021/08/27 05:49:18;;;;;;;5.57;1.65;;;;;;;;;;5069754;28;20189;-69
2021/08/27 05:51:43;;;;;;;3.30;1.67;;;;;;;;;;5070157;28;20318;-70
2021/08/27 05:54:09;;;;;;;3.58;1.40;;;;;;;;;;5071162;28;20204;-70
2021/08/27 05:56:34;;;;;;;5.15;1.40;;;;;;;;;;5065622;28;20194;-70
2021/08/27 05:59:00;;;;;;;3.60;1.10;;;;;;;;;;5071189;28;20203;-70
2021/08/27 06:01:25;;;;;;;3.88;1.25;;;;;;;;;;5067996;28;20263;-69
2021/08/27 06:03:50;;;;;;;3.35;1.20;;;;;;;;;;5068215;28;20631;-69
2021/08/27 06:06:15;;;;;;;4.10;1.20;;;;;;;;;;5048459;28;20203;-69
2021/08/27 06:08:40;;;;;;;9.15;1.77;;;;;;;;;;5067102;28;20181;-70
2021/08/27 06:11:06;;;;;;;7.53;1.35;;;;;;;;;;5069273;28;20263;-70
2021/08/27 06:13:31;;;;;;;7.22;1.20;;;;;;;;;;5068502;28;20668;-70
2021/08/27 06:15:56;;;;;;;5.03;1.15;;;;;;;;;;5038618;28;20205;-69
2021/08/27 06:18:22;;;;;;;3.78;1.10;;;;;;;;;;5069120;28;20177;-70
2021/08/27 06:20:50;;;;;;;3.20;1.20;;;;;;;;;;5068253;28;20195;-70
2021/08/27 06:23:15;;;;;;;6.97;1.90;;;;;;;;;;5070155;28;20660;-69
2021/08/27 06:25:40;;;;;;;2.55;1.10;;;;;;;;;;5046236;28;20204;-69
2021/08/27 06:28:05;;;;;;;11.18;1.83;;;;;;;;;;5070136;28;20685;-71
2021/08/27 06:30:31;;;;;;;4.13;1.67;;;;;;;;;;5068197;28;20658;-69
2021/08/27 06:32:56;;;;;;;5.28;1.70;;;;;;;;;;5068768;28;20220;-70
2021/08/27 06:35:21;;;;;;;2.90;1.35;;;;;;;;;;5066409;28;20205;-69
2021/08/27 06:40:31;;;;;;;5.65;1.52;;;;;;;;;;5070636;28;20221;-70
2021/08/27 06:42:56;;;;;;;6.72;2.30;;;;;;;;;;5069975;28;20593;-69
2021/08/27 06:45:21;;;;;;;7.30;1.77;;;;;;;;;;5070741;28;20197;-70
2021/08/27 06:47:47;;;;;;;3.67;1.50;;;;;;;;;;5069844;28;20647;-70
2021/08/27 06:50:12;;;;;;;6.65;1.75;;;;;;;;;;5070084;28;20286;-69
2021/08/27 06:52:37;;;;;;;4.88;1.77;;;;;;;;;;5069873;28;20181;-69
2021/08/27 06:55:02;;;;;;;2.97;1.40;;;;;;;;;;5063826;28;20588;-69
2021/08/27 06:57:27;;;;;;;4.45;1.70;;;;;;;;;;5068671;28;20268;-70
2021/08/27 06:59:54;;;;;;;4.82;1.30;;;;;;;;;;5068048;28;20177;-69
2021/08/27 07:02:19;;;;;;;4.95;1.20;;;;;;;;;;5063160;28;20175;-69
2021/08/27 07:04:44;;;;;;;5.88;1.38;;;;;;;;;;5069663;28;20641;-70
2021/08/27 07:07:09;;;;;;;2.07;0.80;;;;;;;;;;5068399;28;20195;-70
2021/08/27 07:09:34;;;;;;;5.85;1.15;;;;;;;;;;5049547;28;20498;-70
2021/08/27 07:11:59;;;;;;;8.17;1.30;;;;;;;;;;5066743;28;20180;-70
2021/08/27 07:14:25;;;;;;;4.87;1.00;;;;;;;;;;5060519;28;20967;-69
2021/08/27 07:16:50;;;;;;;2.97;1.10;;;;;;;;;;5066591;28;20452;-70
2021/08/27 07:19:15;;;;;;;6.00;1.38;;;;;;;;;;5068852;28;20958;-70
2021/08/27 07:21:40;;;;;;;3.15;0.93;;;;;;;;;;5066115;28;20225;-69
2021/08/27 07:24:05;;;;;;;3.53;1.55;;;;;;;;;;5069063;28;20200;-70
2021/08/27 07:26:31;;;;;;;3.20;1.00;;;;;;;;;;5065067;28;20173;-70
2021/08/27 07:28:57;;;;;;;6.45;1.50;;;;;;;;;;5067193;28;20200;-70
2021/08/27 07:31:22;;;;;;;3.67;1.02;;;;;;;;;;5050934;28;20196;-70
2021/08/27 07:33:49;;;;;;;3.67;1.00;;;;;;;;;;5072366;28;20181;-69
2021/08/27 07:36:14;;;;;;;7.63;1.45;;;;;;;;;;5055923;28;20464;-70
2021/08/27 07:38:39;;;;;;;5.28;1.30;;;;;;;;;;5071766;28;20181;-70
2021/08/27 07:41:04;;;;;;;5.07;1.10;;;;;;;;;;5054797;28;20195;-70
2021/08/27 07:43:29;;;;;;;1.33;1.00;;;;;;;;;;5055297;28;20421;-70
2021/08/27 07:45:57;;;;;;;2.22;1.08;;;;;;;;;;5070989;28;20228;-70
2021/08/27 07:48:26;;;;;;;4.57;1.00;;;;;;;;;;5063442;28;20173;-69
2021/08/27 07:50:51;;;;;;;3.08;1.17;;;;;;;;;;5055083;28;20242;-71
2021/08/27 07:53:17;;;;;;;5.72;1.23;;;;;;;;;;5069196;28;20662;-69
2021/08/27 07:55:42;;;;;;;6.22;1.67;;;;;;;;;;5068846;28;20220;-69
2021/08/27 07:58:07;;;;;;;3.63;0.90;;;;;;;;;;5067943;28;20540;-69
2021/08/27 08:00:32;;;;;;;4.78;1.00;;;;;;;;;;5072987;28;20401;-70
2021/08/27 08:02:57;;;;;;;3.53;1.35;;;;;;;;;;5073565;28;20180;-69
2021/08/27 08:05:22;;;;;;;5.57;1.20;;;;;;;;;;5074691;28;20201;-70
2021/08/27 08:07:48;;;;;;;5.70;1.10;;;;;;;;;;5071945;28;20925;-69
2021/08/27 08:10:13;;;;;;;3.00;1.10;;;;;;;;;;5067941;28;20446;-68
2021/08/27 08:12:38;;;;;;;2.30;1.20;;;;;;;;;;5070270;28;20181;-70
2021/08/27 08:15:04;;;;;;;4.65;1.30;;;;;;;;;;5073268;28;20526;-69
2021/08/27 08:17:29;;;;;;;4.88;1.35;;;;;;;;;;5073452;28;20271;-70
2021/08/27 08:19:54;;;;;;;2.05;0.82;;;;;;;;;;5072849;28;20181;-69
2021/08/27 08:22:21;;;;;;;3.63;1.08;;;;;;;;;;5073125;28;20176;-69
2021/08/27 08:24:46;;;;;;;4.43;1.20;;;;;;;;;;5073263;28;20326;-70
2021/08/27 08:27:11;;;;;;;3.63;0.93;;;;;;;;;;5073003;28;20659;-68
2021/08/27 08:29:38;;;;;;;3.77;1.10;;;;;;;;;;5072912;28;20414;-70
2021/08/27 08:32:05;;;;;;;7.53;1.55;;;;;;;;;;5065493;28;20416;-69
2021/08/27 08:34:30;;;;;;;1.48;0.88;;;;;;;;;;5084891;22;20251;-68
2021/08/27 08:36:55;;;;;;;3.95;1.02;;;;;;;;;;5053342;28;20185;-67
2021/08/27 08:39:20;;;;;;;4.17;1.27;;;;;;;;;;5052938;28;20193;-68
2021/08/27 08:41:46;;;;;;;3.13;1.13;;;;;;;;;;5052939;28;20452;-65
2021/08/27 08:44:11;;;;;;;3.05;0.93;;;;;;;;;;5054261;28;20509;-66
2021/08/27 08:46:37;;;;;;;3.60;1.00;;;;;;;;;;5065126;28;20712;-68
2021/08/27 08:49:03;;;;;;;2.47;1.10;;;;;;;;;;5064142;28;20445;-68
2021/08/27 08:51:28;;;;;;;5.32;1.15;;;;;;;;;;5050385;28;20215;-68
2021/08/27 08:53:54;;;;;;;4.93;1.73;;;;;;;;;;5052599;28;20185;-69
2021/08/27 08:56:20;;;;;;;3.53;1.05;;;;;;;;;;5049119;28;20254;-67
2021/08/27 08:58:45;;;;;;;4.47;1.40;;;;;;;;;;5046883;28;20264;-66
2021/08/27 09:01:17;;;;;;;2.88;1.00;;;;;;;;;;5052110;28;20256;-67
2021/08/27 09:03:43;;;;;;;5.53;1.33;;;;;;;;;;5028414;28;20260;-66
2021/08/27 09:06:08;;;;;;;3.53;1.25;;;;;;;;;;5050712;28;20194;-67
2021/08/27 09:08:37;;;;;;;2.13;1.50;;;;;;;;;;5062280;28;20655;-67
2021/08/27 09:11:12;;;;;;;6.22;1.90;;;;;;;;;;5048693;28;20424;-67
2021/08/27 09:13:37;;;;;;;2.53;1.13;;;;;;;;;;5060294;28;20173;-67
2021/08/27 09:16:06;;;;;;;3.87;1.03;;;;;;;;;;5063066;28;20596;-67
2021/08/27 09:18:41;;;;;;;2.22;1.40;;;;;;;;;;5061339;28;20424;-68
2021/08/27 09:21:25;;;;;;;3.53;1.00;;;;;;;;;;5059196;28;20186;-67
2021/08/27 09:23:51;;;;;;;12.75;1.60;;;;;;;;;;5052316;28;20181;-69
2021/08/27 09:26:37;;;;;;;5.45;1.40;;;;;;;;;;5057434;28;20204;-66
2021/08/27 09:29:03;;;;;;;4.75;1.45;;;;;;;;;;5058694;28;20185;-67
2021/08/27 09:31:35;;;;;;;3.35;1.00;;;;;;;;;;5058871;28;20227;-66
2021/08/27 09:34:00;;;;;;;3.30;1.48;;;;;;;;;;5063377;28;20459;-67
2021/08/27 09:36:27;;;;;;;5.05;1.52;;;;;;;;;;5060963;28;20216;-67
2021/08/27 09:39:01;;;;;;;5.38;2.13;;;;;;;;;;5046603;28;20222;-68
2021/08/27 09:41:26;;;;;;;5.20;1.20;;;;;;;;;;5049691;28;20172;-66
2021/08/27 09:43:54;;;;;;;6.00;1.23;;;;;;;;;;5051228;28;20178;-67
2021/08/27 09:46:43;;;;;;;3.67;1.27;;;;;;;;;;5051841;28;20510;-67
2021/08/27 09:49:27;;;;;;;3.67;1.23;;;;;;;;;;5050759;28;20182;-66
2021/08/27 09:51:52;;;;;;;3.95;1.20;;;;;;;;;;5052795;28;20288;-67
2021/08/27 09:54:22;;;;;;;5.95;1.80;;;;;;;;;;5048899;28;20730;-69
2021/08/27 09:56:55;;;;;;;4.72;1.95;;;;;;;;;;5048411;28;20197;-68
2021/08/27 09:59:52;;;;;;;3.42;1.20;;;;;;;;;;5050931;28;20379;-67
2021/08/27 10:02:29;;;;;;;4.10;1.40;;;;;;;;;;5032350;28;20281;-67
2021/08/27 10:04:57;;;;;;;3.17;1.45;;;;;;;;;;5046569;28;20268;-66
2021/08/27 10:07:25;;;;;;;5.82;1.58;;;;;;;;;;5046605;28;20212;-67
2021/08/27 10:09:50;;;;;;;3.17;1.00;;;;;;;;;;5050606;28;20272;-68
2021/08/27 10:12:16;;;;;;;2.57;1.10;;;;;;;;;;5047934;28;20264;-67
2021/08/27 10:14:41;;;;;;;2.72;1.30;;;;;;;;;;5051421;28;20423;-68
2021/08/27 10:17:06;;;;;;;2.92;1.27;;;;;;;;;;5050498;28;20277;-67
2021/08/27 10:19:32;;;;;;;5.88;1.35;;;;;;;;;;5051050;28;20266;-67
2021/08/27 10:21:58;;;;;;;5.70;1.75;;;;;;;;;;5048635;28;20173;-68
2021/08/27 10:24:23;;;;;;;4.22;1.48;;;;;;;;;;5050272;28;20224;-68
2021/08/27 10:26:48;;;;;;;7.23;2.70;;;;;;;;;;5049547;28;20185;-67
2021/08/27 10:29:14;;;;;;;4.10;1.58;;;;;;;;;;5048739;28;20455;-68
2021/08/27 10:31:44;;;;;;;4.97;2.03;;;;;;;;;;5028038;28;20179;-68
2021/08/27 10:34:09;;;;;;;7.43;1.52;;;;;;;;;;5048904;28;20226;-68
2021/08/27 10:36:34;;;;;;;4.03;1.90;;;;;;;;;;5057217;28;20620;-67
2021/08/27 10:39:00;;;;;;;6.37;1.30;;;;;;;;;;5048620;28;20177;-67
2021/08/27 10:41:31;;;;;;;5.00;1.55;;;;;;;;;;5052754;28;20397;-67
2021/08/27 10:43:59;;;;;;;6.40;1.65;;;;;;;;;;5058125;28;20201;-69
2021/08/27 10:46:43;;;;;;;4.10;1.60;;;;;;;;;;5055957;28;20176;-69
2021/08/27 10:49:08;;;;;;;3.92;1.42;;;;;;;;;;5047426;28;20200;-68
2021/08/27 10:51:40;;;;;;;4.70;1.30;;;;;;;;;;5052098;28;20357;-68
2021/08/27 10:54:06;;;;;;;3.92;1.45;;;;;;;;;;5055702;28;20418;-68
2021/08/27 10:56:51;;;;;;;4.07;1.80;;;;;;;;;;5059581;28;20714;-68
2021/08/27 10:59:21;;;;;;;2.65;1.30;;;;;;;;;;5063072;28;20598;-68
2021/08/27 11:01:47;;;;;;;5.82;1.85;;;;;;;;;;5051087;28;20162;-68
2021/08/27 11:04:23;;;;;;;3.72;1.50;;;;;;;;;;5058596;28;20198;-68
2021/08/27 11:07:04;;;;;;;6.75;2.15;;;;;;;;;;5060539;28;20180;-67
2021/08/27 11:09:30;;;;;;;5.07;1.25;;;;;;;;;;5062509;28;20173;-69
2021/08/27 11:12:23;;;;;;;3.72;1.40;;;;;;;;;;5067794;28;20173;-68
2021/08/27 11:14:52;;;;;;;6.13;1.75;;;;;;;;;;5052330;28;20212;-69
2021/08/27 11:17:17;;;;;;;6.13;1.63;;;;;;;;;;5063200;28;20556;-68
2021/08/27 11:19:57;;;;;;;5.33;1.60;;;;;;;;;;5061728;28;20269;-68
2021/08/27 11:22:30;;;;;;;5.40;1.63;;;;;;;;;;5058431;28;20922;-66
2021/08/27 11:25:05;;;;;;;7.25;1.95;;;;;;;;;;5063250;28;20235;-68
2021/08/27 11:27:31;;;;;;;3.53;1.15;;;;;;;;;;5045345;28;20169;-69
2021/08/27 11:30:01;;;;;;;6.32;1.23;;;;;;;;;;5068617;28;20654;-68
2021/08/27 11:32:26;;;;;;;3.42;1.33;;;;;;;;;;5061328;28;20176;-67
2021/08/27 11:34:55;;;;;;;4.68;1.40;;;;;;;;;;5066960;28;20213;-68
2021/08/27 11:37:22;;;;;;;2.88;1.10;;;;;;;;;;5058660;28;20188;-68
2021/08/27 11:39:48;;;;;;;2.88;1.33;;;;;;;;;;5065871;28;20581;-69
2021/08/27 11:42:14;;;;;;;4.00;0.95;;;;;;;;;;5064896;28;20205;-67
2021/08/27 11:44:43;;;;;;;3.47;0.82;;;;;;;;;;5048086;28;20185;-67
2021/08/27 11:47:10;;;;;;;5.47;1.67;;;;;;;;;;5063454;28;20230;-67
2021/08/27 11:49:36;;;;;;;2.17;0.90;;;;;;;;;;5065798;28;20676;-66
2021/08/27 11:52:11;;;;;;;2.17;1.00;;;;;;;;;;5065453;28;20177;-66
2021/08/27 11:54:37;;;;;;;5.18;1.20;;;;;;;;;;5065857;28;20192;-67
2021/08/27 11:57:02;;;;;;;4.15;1.00;;;;;;;;;;5064618;28;20587;-67
2021/08/27 11:59:28;;;;;;;4.05;1.00;;;;;;;;;;5040840;28;20547;-67
2021/08/27 12:01:54;;;;;;;3.40;1.00;;;;;;;;;;5059316;28;20174;-66
2021/08/27 12:04:35;;;;;;;3.00;1.02;;;;;;;;;;5063897;28;20658;-67
2021/08/27 12:07:13;;;;;;;5.63;1.63;;;;;;;;;;5059879;28;20192;-67
2021/08/27 12:09:39;;;;;;;5.10;1.33;;;;;;;;;;5067381;28;20651;-67
2021/08/27 12:12:05;;;;;;;2.28;1.10;;;;;;;;;;5063297;28;20181;-66
2021/08/27 12:14:46;;;;;;;7.15;2.00;;;;;;;;;;5065241;28;20264;-66
2021/08/27 12:17:16;;;;;;;5.15;1.10;;;;;;;;;;5063974;28;20268;-67
2021/08/27 12:19:42;;;;;;;6.20;1.48;;;;;;;;;;5064564;28;20173;-67
2021/08/27 12:22:11;;;;;;;3.92;1.52;;;;;;;;;;5063358;28;20657;-67
2021/08/27 12:24:36;;;;;;;5.68;1.50;;;;;;;;;;5059291;28;20189;-67
2021/08/27 12:27:02;;;;;;;7.05;1.70;;;;;;;;;;5065250;28;20187;-67
2021/08/27 12:29:27;;;;;;;4.75;1.48;;;;;;;;;;5061506;28;20170;-67
2021/08/27 12:31:53;;;;;;;3.93;1.20;;;;;;;;;;5067791;28;20196;-68
2021/08/27 12:34:19;;;;;;;7.57;1.30;;;;;;;;;;5062119;28;20484;-68
2021/08/27 12:36:44;;;;;;;6.18;1.60;;;;;;;;;;5044161;28;20209;-68
2021/08/27 12:39:10;;;;;;;7.47;1.85;;;;;;;;;;5060919;28;20231;-68
2021/08/27 12:41:36;;;;;;;7.95;1.52;;;;;;;;;;5065180;28;20222;-68
2021/08/27 12:44:11;;;;;;;4.55;1.75;;;;;;;;;;5061794;28;20688;-68
2021/08/27 12:46:37;;;;;;;5.10;1.50;;;;;;;;;;5047352;28;20173;-69
2021/08/27 12:49:14;;;;;;;4.78;1.90;;;;;;;;;;5058355;28;20182;-68
2021/08/27 12:51:41;;;;;;;5.30;1.80;;;;;;;;;;5065017;28;20177;-67
2021/08/27 12:54:06;;;;;;;4.25;1.70;;;;;;;;;;5045261;28;20653;-67
2021/08/27 12:56:31;;;;;;;2.93;1.30;;;;;;;;;;5062834;28;20208;-67
2021/08/27 12:58:56;;;;;;;6.23;1.60;;;;;;;;;;5060903;28;20432;-67
2021/08/27 13:01:22;;;;;;;6.90;1.77;;;;;;;;;;5067058;28;20451;-67
2021/08/27 13:03:49;;;;;;;3.58;1.40;;;;;;;;;;5057078;28;20258;-67
2021/08/27 13:06:30;;;;;;;5.78;1.83;;;;;;;;;;5060952;28;20201;-67
2021/08/27 13:08:56;;;;;;;4.95;1.73;;;;;;;;;;5064447;28;20176;-66
2021/08/27 13:11:21;;;;;;;6.97;1.58;;;;;;;;;;5061040;28;20178;-68
2021/08/27 13:13:47;;;;;;;6.55;2.15;;;;;;;;;;5065958;28;20196;-67
2021/08/27 13:16:14;;;;;;;3.75;1.30;;;;;;;;;;5062036;28;20617;-67
2021/08/27 13:18:50;;;;;;;6.10;1.88;;;;;;;;;;5063157;28;20169;-68
2021/08/27 13:21:19;;;;;;;6.38;1.95;;;;;;;;;;5063207;28;20192;-68
2021/08/27 13:23:45;;;;;;;7.50;2.00;;;;;;;;;;5058514;28;20165;-67
2021/08/27 13:26:17;;;;;;;5.63;1.77;;;;;;;;;;5058424;28;20221;-68
2021/08/27 13:28:42;;;;;;;8.23;1.70;;;;;;;;;;5064372;28;20679;-67
2021/08/27 13:31:07;;;;;;;6.20;1.70;;;;;;;;;;5059470;28;20264;-66
2021/08/27 13:33:32;;;;;;;5.60;1.73;;;;;;;;;;5064112;28;20406;-68
2021/08/27 13:35:58;;;;;;;2.92;1.30;;;;;;;;;;5062648;28;20469;-67
2021/08/27 13:38:23;;;;;;;5.28;1.55;;;;;;;;;;5059740;28;20161;-69
2021/08/27 13:40:48;;;;;;;5.93;1.80;;;;;;;;;;5062069;28;20201;-67
2021/08/27 13:43:14;;;;;;;6.32;1.80;;;;;;;;;;5063074;28;20779;-68
2021/08/27 13:45:39;;;;;;;6.80;2.00;;;;;;;;;;5062683;28;20279;-69
2021/08/27 13:48:04;;;;;;;6.85;1.88;;;;;;;;;;5068072;28;20410;-69
2021/08/27 13:50:36;;;;;;;7.88;2.10;;;;;;;;;;5088460;27;20569;-69
2021/08/27 13:53:01;;;;;;;5.78;2.10;;;;;;;;;;5071358;28;20709;-68
2021/08/27 13:55:26;;;;;;;6.13;2.10;;;;;;;;;;5068980;28;20682;-69
2021/08/27 13:57:51;;;;;;;9.10;2.63;;;;;;;;;;5068623;28;20658;-69
2021/08/27 14:00:18;;;;;;;5.88;1.95;;;;;;;;;;5066896;28;20183;-68
2021/08/27 14:02:43;;;;;;;10.82;2.45;;;;;;;;;;5050821;23;20321;-70
2021/08/27 14:05:09;;;;;;;7.20;3.17;;;;;;;;;;5008155;28;20257;-69
2021/08/27 14:07:35;;;;;;;6.13;2.55;;;;;;;;;;5008843;28;20178;-69
2021/08/27 14:10:01;;;;;;;7.93;2.85;;;;;;;;;;5008072;28;20198;-68
2021/08/27 14:12:26;;;;;;;6.47;2.78;;;;;;;;;;5004001;28;20241;-69
2021/08/27 14:14:51;;;;;;;5.03;2.05;;;;;;;;;;4989565;28;20180;-71
2021/08/27 14:17:17;;;;;;;7.33;1.97;;;;;;;;;;4993237;28;20196;-69
2021/08/27 14:19:42;;;;;;;5.78;1.85;;;;;;;;;;4994918;28;20401;-69
2021/08/27 14:22:07;;;;;;;3.58;1.67;;;;;;;;;;4994641;28;20203;-69
2021/08/27 14:24:34;;;;;;;4.70;2.15;;;;;;;;;;4996766;28;20720;-68
2021/08/27 14:26:59;;;;;;;5.20;2.00;;;;;;;;;;4993921;28;20190;-69
2021/08/27 14:29:24;;;;;;;5.88;1.65;;;;;;;;;;4988615;28;20207;-69
2021/08/27 14:31:49;;;;;;;6.90;1.50;;;;;;;;;;4997299;28;20270;-68
2021/08/27 14:34:15;;;;;;;2.27;1.20;;;;;;;;;;4991220;28;20762;-69
2021/08/27 14:36:40;;;;;;;5.30;1.80;;;;;;;;;;4996555;28;20420;-69
2021/08/27 14:39:05;;;;;;;4.65;1.77;;;;;;;;;;4991001;28;20442;-69
2021/08/27 14:41:35;;;;;;;5.10;1.92;;;;;;;;;;4993267;28;20175;-69
2021/08/27 14:44:00;;;;;;;4.75;1.80;;;;;;;;;;5006691;28;20184;-69
2021/08/27 14:46:25;;;;;;;5.85;2.15;;;;;;;;;;4995237;28;20882;-69